Terminal Aerodrome Forecast
Issued by NWS Jacksonville, FL

Home | Current Version | Previous Version | Text Only | Print | Product List | Glossary On
Versions: 1 2 3 4 5 6 7 8 9 10 11 12 13 14 15 16
424
FTUS42 KJAX 252330
TAFJAX
TAF
KJAX 252330Z 2600/2624 VRB06KT P6SM FEW050
     FM260300 VRB02KT P6SM SKC
     FM261400 20005KT P6SM FEW030
     FM261900 15009KT P6SM VCTS SCT050CB=

USA.gov is the U.S. government's official web portal to all federal, state and local government web resources and services.